createdAt,value
2018-12-12T00:00:09.671Z,98.30
2018-12-12T00:02:02.564Z,98.49
2018-12-12T00:03:02.576Z,98.30
2018-12-12T00:04:55.478Z,98.30
2018-12-12T00:05:55.480Z,98.40
2018-12-12T00:07:48.373Z,98.68
2018-12-12T00:08:48.385Z,98.49
2018-12-12T00:10:41.287Z,98.49
2018-12-12T00:11:41.290Z,98.40
2018-12-12T00:13:34.183Z,98.49
2018-12-12T00:14:34.194Z,98.49
2018-12-12T00:16:27.092Z,98.49
2018-12-12T00:17:27.096Z,98.68
2018-12-12T00:19:19.990Z,98.49
2018-12-12T00:20:20.003Z,98.59
2018-12-12T00:22:12.904Z,98.59
2018-12-12T00:23:12.907Z,98.59
2018-12-12T00:25:05.816Z,98.49
2018-12-12T00:26:05.814Z,98.40
2018-12-12T00:27:58.707Z,98.30
2018-12-12T00:28:58.717Z,98.49
2018-12-12T00:30:51.620Z,98.40
2018-12-12T00:31:51.623Z,98.54
2018-12-12T00:33:44.516Z,98.92
2018-12-12T00:34:44.526Z,99.30
2018-12-12T00:36:37.431Z,99.77
2018-12-12T00:37:37.431Z,99.49
2018-12-12T00:39:30.326Z,99.99
2018-12-12T00:40:30.335Z,99.96
2018-12-12T00:42:23.234Z,99.91
2018-12-12T00:43:23.237Z,99.99
2018-12-12T00:45:16.132Z,99.54
2018-12-12T00:46:16.141Z,99.73
2018-12-12T00:48:09.042Z,99.99
2018-12-12T00:49:09.046Z,99.63
2018-12-12T00:51:01.945Z,99.26
2018-12-12T00:52:01.948Z,99.54
2018-12-12T00:53:54.909Z,99.54
2018-12-12T00:54:54.851Z,99.54
2018-12-12T00:56:47.751Z,98.97
2018-12-12T00:57:47.754Z,99.44
2018-12-12T00:59:40.646Z,98.87
2018-12-12T01:00:40.657Z,98.87
2018-12-12T01:02:33.559Z,98.78
2018-12-12T01:03:33.562Z,98.97
2018-12-12T01:05:26.455Z,99.06
2018-12-12T01:06:26.466Z,98.59
2018-12-12T01:08:19.861Z,98.97
2018-12-12T01:09:19.865Z,98.11
2018-12-12T01:11:12.765Z,98.49
2018-12-12T01:12:12.768Z,97.92
2018-12-12T01:14:05.661Z,97.92
2018-12-12T01:15:05.673Z,97.83
2018-12-12T01:16:58.574Z,97.92
2018-12-12T01:17:58.578Z,98.02
2018-12-12T01:19:51.472Z,98.02
2018-12-12T01:20:51.483Z,97.64
2018-12-12T01:22:44.389Z,98.02
2018-12-12T01:23:44.391Z,98.02
2018-12-12T01:25:37.283Z,98.21
2018-12-12T01:26:37.294Z,98.21
2018-12-12T01:28:30.197Z,98.11
2018-12-12T01:29:30.198Z,97.45
2018-12-12T01:31:23.091Z,97.83
2018-12-12T01:32:23.102Z,97.17
2018-12-12T01:34:16.005Z,97.17
2018-12-12T01:35:16.007Z,96.88
2018-12-12T01:37:09.400Z,97.55
2018-12-12T01:38:09.408Z,97.36
2018-12-12T01:40:02.296Z,96.97
2018-12-12T01:41:02.309Z,96.97
2018-12-12T01:42:55.210Z,96.12
2018-12-12T01:43:55.213Z,96.97
2018-12-12T01:45:48.107Z,96.50
2018-12-12T01:46:48.119Z,96.03
2018-12-12T01:48:41.021Z,97.07
2018-12-12T01:49:41.057Z,96.12
2018-12-12T01:51:33.914Z,95.98
2018-12-12T01:52:33.925Z,96.41
2018-12-12T01:54:26.845Z,96.31
2018-12-12T01:55:26.850Z,96.31
2018-12-12T01:57:19.808Z,96.12
2018-12-12T01:58:19.754Z,95.98
2018-12-12T02:00:12.646Z,96.55
2018-12-12T02:01:12.659Z,96.55
2018-12-12T02:03:05.564Z,95.69
2018-12-12T02:04:05.565Z,95.79
2018-12-12T02:05:58.457Z,95.98
2018-12-12T02:06:58.468Z,95.79
2018-12-12T02:08:51.370Z,95.50
2018-12-12T02:09:51.373Z,95.60
2018-12-12T02:11:44.264Z,95.69
2018-12-12T02:12:44.276Z,96.64
2018-12-12T02:14:37.176Z,96.17
2018-12-12T02:15:37.180Z,96.55
2018-12-12T02:17:30.072Z,96.64
2018-12-12T02:18:30.082Z,96.17
2018-12-12T02:20:22.986Z,96.08
2018-12-12T02:21:22.989Z,96.17
2018-12-12T02:23:15.906Z,96.55
2018-12-12T02:24:15.893Z,96.64
2018-12-12T02:26:08.785Z,95.88
2018-12-12T02:27:08.794Z,95.69
2018-12-12T02:29:01.696Z,95.98
2018-12-12T02:30:01.700Z,95.50
2018-12-12T02:31:54.588Z,96.36
2018-12-12T02:32:54.599Z,96.17
2018-12-12T02:34:47.499Z,96.26
2018-12-12T02:35:47.504Z,97.21
2018-12-12T02:37:40.395Z,96.92
2018-12-12T02:38:40.406Z,97.12
2018-12-12T02:40:34.298Z,97.12
2018-12-12T02:41:34.314Z,96.83
2018-12-12T02:43:27.196Z,96.08
2018-12-12T02:44:27.205Z,96.08
2018-12-12T02:46:20.600Z,96.55
2018-12-12T02:47:20.602Z,96.26
2018-12-12T02:49:13.503Z,96.26
2018-12-12T02:50:13.503Z,96.45
2018-12-12T02:52:06.393Z,96.26
2018-12-12T02:53:06.404Z,95.98
2018-12-12T02:54:59.306Z,96.64
2018-12-12T02:55:59.308Z,96.92
2018-12-12T02:57:52.204Z,96.69
2018-12-12T02:58:52.215Z,96.73
2018-12-12T03:00:45.110Z,96.64
2018-12-12T03:01:45.114Z,96.64
2018-12-12T03:03:38.010Z,96.83
2018-12-12T03:04:38.017Z,96.64
2018-12-12T03:06:30.914Z,96.69
2018-12-12T03:07:30.920Z,96.97
2018-12-12T03:09:23.820Z,96.92
2018-12-12T03:10:23.821Z,96.45
2018-12-12T03:12:16.712Z,97.31
2018-12-12T03:13:16.723Z,96.83
2018-12-12T03:15:09.625Z,97.54
2018-12-12T03:16:09.626Z,97.45
2018-12-12T03:18:02.518Z,97.73
2018-12-12T03:19:02.529Z,97.83
2018-12-12T03:20:55.425Z,97.83
2018-12-12T03:21:55.429Z,98.02
2018-12-12T03:23:48.331Z,97.83
2018-12-12T03:24:48.333Z,97.73
2018-12-12T03:26:41.238Z,98.58
2018-12-12T03:27:41.237Z,98.02
2018-12-12T03:29:34.135Z,98.16
2018-12-12T03:30:34.141Z,97.50
2018-12-12T03:32:27.032Z,98.25
2018-12-12T03:33:27.043Z,98.25
2018-12-12T03:35:19.944Z,97.73
2018-12-12T03:36:19.947Z,98.39
2018-12-12T03:38:12.841Z,98.35
2018-12-12T03:39:12.851Z,98.44
2018-12-12T03:41:05.755Z,98.25
2018-12-12T03:42:05.754Z,98.54
2018-12-12T03:43:58.645Z,98.35
2018-12-12T03:44:58.658Z,98.44
2018-12-12T03:46:51.556Z,98.16
2018-12-12T03:47:51.558Z,98.63
2018-12-12T03:49:44.460Z,98.16
2018-12-12T03:50:44.464Z,97.69
2018-12-12T03:52:37.357Z,97.69
2018-12-12T03:53:37.365Z,97.69
2018-12-12T03:55:30.262Z,98.44
2018-12-12T03:56:30.283Z,97.78
2018-12-12T03:58:23.159Z,97.69
2018-12-12T03:59:23.169Z,97.78
2018-12-12T04:01:16.069Z,98.07
2018-12-12T04:02:16.073Z,98.07
2018-12-12T04:04:08.963Z,97.40
2018-12-12T04:05:08.976Z,97.97
2018-12-12T04:07:01.877Z,97.88
2018-12-12T04:08:01.876Z,97.88
2018-12-12T04:09:54.776Z,98.07
2018-12-12T04:10:54.778Z,98.07
2018-12-12T04:12:47.677Z,97.59
2018-12-12T04:13:47.682Z,97.97
2018-12-12T04:15:40.585Z,97.97
2018-12-12T04:16:40.585Z,97.78
2018-12-12T04:18:33.478Z,97.78
2018-12-12T04:19:33.499Z,98.16
2018-12-12T04:21:26.391Z,97.31
2018-12-12T04:22:26.396Z,97.21
2018-12-12T04:24:19.288Z,97.69
2018-12-12T04:25:19.307Z,97.50
2018-12-12T04:27:12.201Z,97.69
2018-12-12T04:28:12.203Z,97.31
2018-12-12T04:30:05.099Z,97.31
2018-12-12T04:31:05.113Z,97.21
2018-12-12T04:32:57.994Z,97.21
2018-12-12T04:33:58.005Z,96.83
2018-12-12T04:35:50.905Z,96.73
2018-12-12T04:36:50.913Z,96.83
2018-12-12T04:38:43.801Z,96.92
2018-12-12T04:39:43.813Z,96.73
2018-12-12T04:41:36.715Z,96.45
2018-12-12T04:42:36.714Z,95.88
2018-12-12T04:44:29.606Z,95.60
2018-12-12T04:45:29.618Z,95.79
2018-12-12T04:47:22.522Z,95.60
2018-12-12T04:48:22.527Z,95.88
2018-12-12T04:50:15.424Z,96.55
2018-12-12T04:51:15.429Z,96.08
2018-12-12T04:53:10.577Z,96.55
2018-12-12T04:54:10.540Z,96.45
2018-12-12T04:56:03.934Z,95.60
2018-12-12T04:57:03.937Z,95.69
2018-12-12T04:58:56.830Z,96.08
2018-12-12T04:59:56.842Z,95.41
2018-12-12T05:01:49.748Z,95.50
2018-12-12T05:02:49.745Z,95.69
2018-12-12T05:04:43.132Z,95.69
2018-12-12T05:05:43.150Z,95.69
2018-12-12T05:07:36.043Z,95.31
2018-12-12T05:08:36.046Z,95.55
2018-12-12T05:10:28.947Z,94.98
2018-12-12T05:11:28.956Z,95.31
2018-12-12T05:13:21.841Z,95.17
2018-12-12T05:14:21.854Z,95.55
2018-12-12T05:16:14.955Z,95.41
2018-12-12T05:17:14.959Z,94.93
2018-12-12T05:19:07.853Z,94.84
2018-12-12T05:20:07.869Z,94.18
2018-12-12T05:22:00.862Z,93.70
2018-12-12T05:23:00.765Z,93.89
2018-12-12T05:24:53.658Z,94.18
2018-12-12T05:25:53.669Z,93.89
2018-12-12T05:27:46.570Z,93.80
2018-12-12T05:28:46.574Z,94.08
2018-12-12T05:30:39.474Z,93.41
2018-12-12T05:31:39.477Z,93.41
2018-12-12T05:33:32.371Z,93.80
2018-12-12T05:34:32.381Z,93.70
2018-12-12T05:36:25.281Z,93.80
2018-12-12T05:37:25.286Z,93.70
2018-12-12T05:39:18.176Z,94.18
2018-12-12T05:40:18.190Z,94.18
2018-12-12T05:42:11.089Z,94.18
2018-12-12T05:43:11.093Z,94.18
2018-12-12T05:45:03.984Z,93.89
2018-12-12T05:46:03.996Z,94.08
2018-12-12T05:47:56.897Z,94.18
2018-12-12T05:48:56.899Z,93.80
2018-12-12T05:50:50.297Z,94.08
2018-12-12T05:51:50.298Z,93.99
2018-12-12T05:53:43.192Z,94.18
2018-12-12T05:54:43.206Z,93.70
2018-12-12T05:56:36.103Z,93.61
2018-12-12T05:57:36.107Z,93.61
2018-12-12T05:59:28.995Z,93.32
2018-12-12T06:00:29.007Z,93.61
2018-12-12T06:02:21.908Z,93.70
2018-12-12T06:03:21.909Z,93.99
2018-12-12T06:05:14.802Z,93.51
2018-12-12T06:06:14.815Z,93.32
2018-12-12T06:08:07.716Z,93.41
2018-12-12T06:09:07.716Z,93.32
2018-12-12T06:11:00.618Z,93.51
2018-12-12T06:12:00.621Z,93.04
2018-12-12T06:13:53.514Z,93.13
2018-12-12T06:14:53.523Z,93.80
2018-12-12T06:16:46.425Z,93.41
2018-12-12T06:17:46.430Z,93.51
2018-12-12T06:19:39.322Z,93.32
2018-12-12T06:20:39.333Z,93.13
2018-12-12T06:22:37.556Z,92.71
2018-12-12T06:23:32.238Z,92.99
2018-12-12T06:25:25.137Z,92.80
2018-12-12T06:26:25.223Z,93.23
2018-12-12T06:28:18.046Z,93.18
2018-12-12T06:29:18.047Z,93.13
2018-12-12T06:31:10.951Z,93.08
2018-12-12T06:32:10.956Z,93.18
2018-12-12T06:34:03.848Z,92.80
2018-12-12T06:35:03.861Z,92.71
2018-12-12T06:36:56.761Z,92.42
2018-12-12T06:37:56.764Z,91.85
2018-12-12T06:39:49.653Z,91.85
2018-12-12T06:40:49.665Z,92.23
2018-12-12T06:42:42.565Z,91.71
2018-12-12T06:43:42.568Z,92.57
2018-12-12T06:45:35.458Z,92.66
2018-12-12T06:46:35.470Z,92.94
2018-12-12T06:48:29.367Z,92.76
2018-12-12T06:49:29.372Z,93.13
2018-12-12T06:51:22.273Z,92.85
2018-12-12T06:52:22.275Z,92.94
2018-12-12T06:54:15.171Z,92.85
2018-12-12T06:55:15.179Z,92.66
2018-12-12T06:57:08.080Z,92.94
2018-12-12T06:58:08.081Z,92.94
2018-12-12T07:00:01.467Z,93.23
2018-12-12T07:01:01.479Z,92.94
2018-12-12T07:02:54.385Z,92.66
2018-12-12T07:03:54.383Z,92.76
2018-12-12T07:05:47.274Z,92.94
2018-12-12T07:06:47.287Z,92.66
2018-12-12T07:08:40.185Z,92.85
2018-12-12T07:09:40.189Z,92.85
2018-12-12T07:11:33.089Z,93.04
2018-12-12T07:12:33.090Z,92.85
2018-12-12T07:14:25.983Z,92.85
2018-12-12T07:15:25.994Z,93.32
2018-12-12T07:17:18.894Z,92.94
2018-12-12T07:18:18.898Z,92.90
2018-12-12T07:20:11.794Z,92.90
2018-12-12T07:21:11.802Z,93.13
2018-12-12T07:23:04.701Z,93.37
2018-12-12T07:24:04.709Z,92.99
2018-12-12T07:25:57.595Z,92.90
2018-12-12T07:26:57.606Z,92.99
2018-12-12T07:28:50.507Z,92.99
2018-12-12T07:29:50.511Z,93.08
2018-12-12T07:31:43.413Z,93.08
2018-12-12T07:32:43.416Z,92.94
2018-12-12T07:34:36.308Z,93.08
2018-12-12T07:35:36.317Z,93.18
2018-12-12T07:37:29.220Z,92.71
2018-12-12T07:38:29.221Z,92.52
2018-12-12T07:40:22.113Z,92.52
2018-12-12T07:41:22.126Z,92.47
2018-12-12T07:43:15.026Z,92.61
2018-12-12T07:44:15.029Z,92.42
2018-12-12T07:46:07.921Z,92.57
2018-12-12T07:47:07.932Z,92.09
2018-12-12T07:49:00.833Z,92.94
2018-12-12T07:50:00.896Z,93.04
2018-12-12T07:51:54.229Z,93.04
2018-12-12T07:52:54.233Z,93.23
2018-12-12T07:54:47.126Z,93.89
2018-12-12T07:55:47.235Z,93.80
2018-12-12T07:57:40.535Z,93.61
2018-12-12T07:58:40.535Z,93.51
2018-12-12T08:00:33.426Z,93.99
2018-12-12T08:01:33.440Z,93.13
2018-12-12T08:03:26.335Z,93.61
2018-12-12T08:04:26.339Z,93.41
2018-12-12T08:06:19.233Z,93.41
2018-12-12T08:07:19.243Z,93.51
2018-12-12T08:09:12.143Z,93.80
2018-12-12T08:10:12.147Z,93.80
2018-12-12T08:12:05.045Z,94.18
2018-12-12T08:13:05.047Z,94.18
2018-12-12T08:14:58.437Z,93.51
2018-12-12T08:15:58.446Z,93.51
2018-12-12T08:17:51.347Z,93.41
2018-12-12T08:18:51.351Z,93.46
2018-12-12T08:20:44.242Z,93.80
2018-12-12T08:21:44.256Z,93.41
2018-12-12T08:23:37.154Z,93.65
2018-12-12T08:24:37.156Z,94.13
2018-12-12T08:26:30.048Z,94.23
2018-12-12T08:27:30.060Z,93.56
2018-12-12T08:29:22.961Z,93.46
2018-12-12T08:30:22.964Z,93.46
2018-12-12T08:32:15.864Z,93.56
2018-12-12T08:33:15.869Z,93.75
2018-12-12T08:35:08.765Z,93.08
2018-12-12T08:36:08.781Z,92.80
2018-12-12T08:38:01.678Z,93.08
2018-12-12T08:39:01.680Z,92.99
2018-12-12T08:40:54.574Z,93.08
2018-12-12T08:41:54.586Z,93.18
2018-12-12T08:43:47.483Z,93.08
2018-12-12T08:44:47.489Z,93.08
2018-12-12T08:46:40.883Z,93.08
2018-12-12T08:47:40.895Z,93.08
2018-12-12T08:49:33.793Z,92.90
2018-12-12T08:50:33.796Z,92.52
2018-12-12T08:52:26.699Z,92.52
2018-12-12T08:53:26.701Z,93.08
2018-12-12T08:55:19.595Z,92.42
2018-12-12T08:56:19.606Z,92.71
2018-12-12T08:58:12.509Z,91.94
2018-12-12T08:59:12.514Z,92.23
2018-12-12T09:01:05.408Z,92.04
2018-12-12T09:02:05.548Z,92.52
2018-12-12T09:03:58.316Z,92.52
2018-12-12T09:04:58.319Z,92.42
2018-12-12T09:06:51.209Z,92.61
2018-12-12T09:07:51.274Z,92.61
2018-12-12T09:09:44.121Z,92.61
2018-12-12T09:10:44.125Z,93.08
2018-12-12T09:12:37.028Z,92.90
2018-12-12T09:13:37.029Z,92.90
2018-12-12T09:15:29.922Z,92.99
2018-12-12T09:16:29.934Z,92.42
2018-12-12T09:18:22.836Z,92.90
2018-12-12T09:19:22.836Z,92.71
2018-12-12T09:21:15.730Z,92.14
2018-12-12T09:22:15.742Z,91.75
2018-12-12T09:24:08.646Z,92.23
2018-12-12T09:25:08.650Z,91.85
2018-12-12T09:27:01.542Z,92.42
2018-12-12T09:28:01.557Z,92.04
2018-12-12T09:29:54.457Z,92.42
2018-12-12T09:30:54.466Z,92.23
2018-12-12T09:32:47.392Z,92.23
2018-12-12T09:33:47.366Z,91.94
2018-12-12T09:35:40.256Z,92.09
2018-12-12T09:36:40.270Z,92.23
2018-12-12T09:38:33.677Z,92.09
2018-12-12T09:39:33.680Z,91.42
2018-12-12T09:41:26.571Z,91.24
2018-12-12T09:42:26.585Z,91.52
2018-12-12T09:44:19.487Z,91.42
2018-12-12T09:45:21.784Z,91.61
2018-12-12T09:47:12.876Z,91.61
2018-12-12T09:48:19.144Z,91.52
2018-12-12T09:50:05.798Z,91.24
2018-12-12T09:51:07.255Z,90.85
2018-12-12T09:52:58.696Z,90.57
2018-12-12T09:53:58.699Z,91.04
2018-12-12T09:55:51.597Z,91.14
2018-12-12T09:56:51.604Z,91.14
2018-12-12T09:58:44.506Z,91.33
2018-12-12T09:59:44.508Z,91.42
2018-12-12T10:01:37.403Z,91.24
2018-12-12T10:02:37.416Z,91.14
2018-12-12T10:04:30.318Z,91.24
2018-12-12T10:05:30.322Z,91.33
2018-12-12T10:07:23.217Z,90.71
2018-12-12T10:08:23.228Z,90.85
2018-12-12T10:10:16.128Z,90.66
2018-12-12T10:11:16.134Z,91.00
2018-12-12T10:13:09.035Z,91.33
2018-12-12T10:14:09.039Z,91.56
2018-12-12T10:16:02.424Z,91.42
2018-12-12T10:17:02.440Z,91.33
2018-12-12T10:18:55.403Z,91.42
2018-12-12T10:19:55.344Z,91.04
2018-12-12T10:21:48.235Z,91.42
2018-12-12T10:22:48.249Z,91.24
2018-12-12T10:24:41.151Z,91.24
2018-12-12T10:25:41.154Z,90.95
2018-12-12T10:27:34.049Z,91.24
2018-12-12T10:28:34.057Z,91.42
2018-12-12T10:30:26.960Z,91.33
2018-12-12T10:31:26.964Z,90.85
2018-12-12T10:33:19.866Z,91.04
2018-12-12T10:34:19.922Z,90.76
2018-12-12T10:36:12.765Z,91.33
2018-12-12T10:37:12.771Z,91.52
2018-12-12T10:39:05.684Z,90.85
2018-12-12T10:40:05.679Z,91.04
2018-12-12T10:41:58.573Z,91.14
2018-12-12T10:42:58.584Z,91.14
2018-12-12T10:44:51.486Z,91.14
2018-12-12T10:45:51.489Z,90.95
2018-12-12T10:47:44.384Z,90.76
2018-12-12T10:48:44.397Z,91.24
2018-12-12T10:50:37.303Z,91.04
2018-12-12T10:51:37.306Z,90.95
2018-12-12T10:53:30.208Z,91.04
2018-12-12T10:54:30.212Z,90.95
2018-12-12T10:56:23.105Z,91.24
2018-12-12T10:57:23.119Z,91.52
2018-12-12T10:59:16.018Z,91.33
2018-12-12T11:00:16.022Z,91.52
2018-12-12T11:02:08.915Z,91.47
2018-12-12T11:03:08.928Z,91.19
2018-12-12T11:05:01.839Z,91.19
2018-12-12T11:06:01.834Z,91.14
2018-12-12T11:07:54.727Z,90.81
2018-12-12T11:08:54.739Z,90.62
2018-12-12T11:10:48.136Z,90.71
2018-12-12T11:11:48.140Z,91.19
2018-12-12T11:13:41.044Z,91.56
2018-12-12T11:14:41.044Z,91.38
2018-12-12T11:16:33.937Z,91.00
2018-12-12T11:17:33.949Z,91.28
2018-12-12T11:19:26.848Z,91.66
2018-12-12T11:20:26.857Z,91.19
2018-12-12T11:22:19.748Z,91.09
2018-12-12T11:23:19.757Z,91.47
2018-12-12T11:25:12.659Z,91.28
2018-12-12T11:26:12.662Z,91.28
2018-12-12T11:28:05.561Z,91.24
2018-12-12T11:29:05.576Z,91.61
2018-12-12T11:30:58.670Z,90.76
2018-12-12T11:31:58.674Z,90.47
2018-12-12T11:33:51.574Z,90.85
2018-12-12T11:34:51.575Z,90.66
2018-12-12T11:36:44.960Z,90.09
2018-12-12T11:37:44.975Z,88.95
2018-12-12T11:39:37.875Z,88.57
2018-12-12T11:40:37.877Z,87.72
2018-12-12T11:42:30.773Z,88.67
2018-12-12T11:43:30.786Z,88.67
2018-12-12T11:45:23.686Z,88.39
2018-12-12T11:46:23.687Z,88.10
2018-12-12T11:48:16.583Z,88.01
2018-12-12T11:49:16.594Z,88.76
2018-12-12T11:51:09.495Z,88.57
2018-12-12T11:52:09.498Z,88.57
2018-12-12T11:54:02.401Z,88.48
2018-12-12T11:55:02.410Z,88.20
2018-12-12T11:56:55.299Z,88.20
2018-12-12T11:57:55.311Z,87.82
2018-12-12T11:59:48.213Z,87.34
2018-12-12T12:00:48.215Z,87.62
2018-12-12T12:02:41.107Z,86.77
2018-12-12T12:03:41.119Z,87.15
2018-12-12T12:05:34.020Z,86.87
2018-12-12T12:06:34.025Z,87.15
2018-12-12T12:08:26.922Z,87.15
2018-12-12T12:09:26.929Z,87.05
2018-12-12T12:11:19.829Z,87.15
2018-12-12T12:12:19.834Z,87.53
2018-12-12T12:14:12.733Z,87.95
2018-12-12T12:15:12.737Z,87.43
2018-12-12T12:17:05.633Z,87.05
2018-12-12T12:18:05.642Z,87.29
2018-12-12T12:19:58.546Z,86.15
2018-12-12T12:20:58.549Z,86.05
2018-12-12T12:22:51.441Z,85.01
2018-12-12T12:23:51.453Z,85.91
2018-12-12T12:25:44.850Z,86.01
2018-12-12T12:26:44.857Z,85.86
2018-12-12T12:28:37.746Z,85.86
2018-12-12T12:29:37.757Z,86.11
2018-12-12T12:31:30.661Z,85.30
2018-12-12T12:32:30.663Z,85.20
2018-12-12T12:34:23.564Z,85.06
2018-12-12T12:35:23.566Z,84.91
2018-12-12T12:37:16.462Z,85.11
2018-12-12T12:38:16.477Z,85.01
2018-12-12T12:40:09.376Z,84.91
2018-12-12T12:41:09.378Z,84.53
2018-12-12T12:43:02.273Z,84.97
2018-12-12T12:44:02.282Z,84.53
2018-12-12T12:45:55.185Z,84.25
2018-12-12T12:46:55.186Z,84.21
2018-12-12T12:48:48.574Z,84.21
2018-12-12T12:49:48.591Z,84.06
2018-12-12T12:51:41.490Z,84.21
2018-12-12T12:52:41.492Z,84.53
2018-12-12T12:54:34.393Z,84.49
2018-12-12T12:55:34.393Z,84.06
2018-12-12T12:57:27.292Z,84.49
2018-12-12T12:58:27.302Z,84.91
2018-12-12T13:00:20.205Z,84.49
2018-12-12T13:01:20.207Z,83.64
2018-12-12T13:03:13.101Z,83.07
2018-12-12T13:04:13.119Z,83.97
2018-12-12T13:06:06.021Z,84.25
2018-12-12T13:07:06.021Z,83.78
2018-12-12T13:08:58.913Z,83.87
2018-12-12T13:09:58.928Z,83.30
2018-12-12T13:11:51.853Z,83.20
2018-12-12T13:12:51.832Z,83.26
2018-12-12T13:14:44.736Z,83.11
2018-12-12T13:15:44.738Z,83.59
2018-12-12T13:17:37.633Z,83.64
2018-12-12T13:18:37.642Z,83.87
2018-12-12T13:20:30.546Z,84.21
2018-12-12T13:21:30.551Z,84.11
2018-12-12T13:23:23.938Z,83.83
2018-12-12T13:24:23.950Z,84.01
2018-12-12T13:26:16.856Z,84.53
2018-12-12T13:27:16.856Z,84.68
2018-12-12T13:29:09.750Z,83.26
2018-12-12T13:30:09.763Z,83.16
2018-12-12T13:32:02.665Z,83.26
2018-12-12T13:33:02.672Z,83.26
2018-12-12T13:34:55.574Z,83.64
2018-12-12T13:35:55.575Z,83.83
2018-12-12T13:37:48.471Z,84.01
2018-12-12T13:38:48.484Z,84.01
2018-12-12T13:40:41.385Z,84.30
2018-12-12T13:41:41.390Z,84.40
2018-12-12T13:43:34.282Z,84.40
2018-12-12T13:44:34.295Z,84.68
2018-12-12T13:46:28.690Z,84.11
2018-12-12T13:47:28.693Z,84.68
2018-12-12T13:49:21.587Z,84.49
2018-12-12T13:50:21.598Z,84.78
2018-12-12T13:52:14.994Z,84.59
2018-12-12T13:53:14.997Z,84.49
2018-12-12T13:55:07.903Z,84.97
2018-12-12T13:56:07.903Z,84.21
2018-12-12T13:58:00.796Z,84.01
2018-12-12T13:59:00.810Z,84.01
2018-12-12T14:00:53.713Z,83.64
2018-12-12T14:01:53.714Z,83.83
2018-12-12T14:03:46.604Z,83.07
2018-12-12T14:04:46.620Z,83.03
2018-12-12T14:06:40.010Z,83.40
2018-12-12T14:07:40.016Z,83.97
2018-12-12T14:09:32.905Z,83.88
2018-12-12T14:10:32.917Z,84.07
2018-12-12T14:12:26.315Z,84.49
2018-12-12T14:13:26.319Z,84.21
2018-12-12T14:15:19.221Z,84.36
2018-12-12T14:16:19.225Z,84.68
2018-12-12T14:18:12.117Z,84.21
2018-12-12T14:19:12.126Z,84.30
2018-12-12T14:21:05.536Z,84.40
2018-12-12T14:22:05.535Z,84.21
2018-12-12T14:23:58.922Z,84.11
2018-12-12T14:24:58.932Z,84.59
2018-12-12T14:26:51.834Z,84.40
2018-12-12T14:27:51.838Z,84.59
2018-12-12T14:29:45.222Z,84.68
2018-12-12T14:30:45.235Z,84.78
2018-12-12T14:32:38.632Z,84.68
2018-12-12T14:33:38.634Z,84.87
2018-12-12T14:35:31.536Z,85.06
2018-12-12T14:36:31.537Z,85.16
2018-12-12T14:38:25.007Z,85.11
2018-12-12T14:39:24.944Z,85.11
2018-12-12T14:41:17.847Z,85.21
2018-12-12T14:42:17.849Z,85.02
2018-12-12T14:44:10.741Z,85.40
2018-12-12T14:45:10.752Z,85.78
2018-12-12T14:47:03.654Z,85.87
2018-12-12T14:48:03.658Z,86.07
2018-12-12T14:49:57.042Z,86.35
2018-12-12T14:50:57.054Z,86.25
2018-12-12T14:52:49.957Z,87.30
2018-12-12T14:53:49.960Z,87.11
2018-12-12T14:55:42.859Z,87.11
2018-12-12T14:56:42.866Z,87.30
2018-12-12T14:58:35.759Z,87.77
2018-12-12T14:59:35.772Z,87.39
2018-12-12T15:01:28.670Z,88.24
2018-12-12T15:02:28.672Z,88.15
2018-12-12T15:04:21.567Z,87.96
2018-12-12T15:05:21.577Z,88.15
2018-12-12T15:07:14.478Z,87.87
2018-12-12T15:08:14.483Z,88.24
2018-12-12T15:10:07.374Z,88.34
2018-12-12T15:11:07.390Z,88.24
2018-12-12T15:13:00.302Z,88.72
2018-12-12T15:14:00.287Z,88.43
2018-12-12T15:15:54.187Z,88.53
2018-12-12T15:16:54.190Z,88.43
2018-12-12T15:18:47.085Z,88.81
2018-12-12T15:19:47.094Z,89.25
2018-12-12T15:21:40.540Z,89.06
2018-12-12T15:22:40.540Z,88.96
2018-12-12T15:24:35.421Z,89.34
2018-12-12T15:25:33.936Z,89.53
2018-12-12T15:27:26.839Z,89.15
2018-12-12T15:28:26.842Z,89.25
2018-12-12T15:30:19.733Z,89.72
2018-12-12T15:31:19.745Z,89.25
2018-12-12T15:33:12.644Z,90.00
2018-12-12T15:34:12.647Z,90.00
2018-12-12T15:36:06.920Z,90.00
2018-12-12T15:37:06.921Z,90.19
2018-12-12T15:38:59.814Z,90.19
2018-12-12T15:39:59.826Z,90.48
2018-12-12T15:41:54.217Z,90.29
2018-12-12T15:42:54.218Z,90.76
2018-12-12T15:44:47.112Z,90.00
2018-12-12T15:45:47.128Z,90.38
2018-12-12T15:47:40.022Z,91.05
2018-12-12T15:48:40.025Z,90.57
2018-12-12T15:50:32.922Z,90.86
2018-12-12T15:51:32.934Z,91.14
2018-12-12T15:53:25.831Z,90.76
2018-12-12T15:54:25.834Z,90.86
2018-12-12T15:56:19.246Z,91.05
2018-12-12T15:57:19.247Z,90.95
2018-12-12T15:59:12.190Z,90.67
2018-12-12T16:00:12.152Z,91.05
2018-12-12T16:02:05.054Z,91.05
2018-12-12T16:03:05.054Z,90.67
2018-12-12T16:04:58.444Z,90.76
2018-12-12T16:05:58.451Z,90.67
2018-12-12T16:07:51.352Z,90.57
2018-12-12T16:08:51.355Z,90.57
2018-12-12T16:10:44.246Z,91.05
2018-12-12T16:11:44.258Z,91.14
2018-12-12T16:13:37.159Z,91.61
2018-12-12T16:14:37.161Z,91.33
2018-12-12T16:16:30.060Z,91.52
2018-12-12T16:17:30.062Z,91.24
2018-12-12T16:19:22.955Z,91.24
2018-12-12T16:20:22.967Z,91.71
2018-12-12T16:22:15.864Z,91.33
2018-12-12T16:23:15.867Z,91.61
2018-12-12T16:25:08.759Z,91.24
2018-12-12T16:26:08.774Z,91.05
2018-12-12T16:28:01.679Z,91.24
2018-12-12T16:29:01.679Z,91.05
2018-12-12T16:30:54.571Z,91.05
2018-12-12T16:31:54.584Z,91.14
2018-12-12T16:33:47.487Z,91.24
2018-12-12T16:34:47.490Z,91.33
2018-12-12T16:36:40.387Z,91.24
2018-12-12T16:37:40.390Z,91.24
2018-12-12T16:39:33.281Z,91.61
2018-12-12T16:40:33.292Z,91.61
2018-12-12T16:42:26.192Z,91.52
2018-12-12T16:43:26.194Z,91.61
2018-12-12T16:45:19.113Z,91.24
2018-12-12T16:46:19.124Z,91.57
2018-12-12T16:48:12.019Z,91.24
2018-12-12T16:49:12.021Z,91.19
2018-12-12T16:51:04.914Z,92.09
2018-12-12T16:52:04.923Z,91.95
2018-12-12T16:53:57.821Z,91.57
2018-12-12T16:54:57.823Z,91.66
2018-12-12T16:56:50.723Z,92.23
2018-12-12T16:57:50.727Z,92.33
2018-12-12T16:59:43.617Z,92.52
2018-12-12T17:00:43.627Z,92.52
2018-12-12T17:02:36.529Z,92.23
2018-12-12T17:03:36.530Z,92.42
2018-12-12T17:05:29.420Z,92.42
2018-12-12T17:06:29.433Z,92.61
2018-12-12T17:08:22.331Z,92.33
2018-12-12T17:09:22.333Z,92.42
2018-12-12T17:11:15.224Z,92.42
2018-12-12T17:12:15.235Z,92.52
2018-12-12T17:14:08.626Z,92.52
2018-12-12T17:15:08.632Z,92.61
2018-12-12T17:17:01.531Z,92.90
2018-12-12T17:18:01.537Z,92.61
2018-12-12T17:19:54.428Z,93.37
2018-12-12T17:20:54.434Z,93.75
2018-12-12T17:22:47.331Z,94.13
2018-12-12T17:23:47.334Z,94.13
2018-12-12T17:25:40.225Z,94.04
2018-12-12T17:26:40.236Z,93.75
2018-12-12T17:28:33.133Z,94.42
2018-12-12T17:29:33.135Z,94.32
2018-12-12T17:31:26.026Z,94.13
2018-12-12T17:32:26.038Z,94.23
2018-12-12T17:34:18.932Z,93.94
2018-12-12T17:35:18.936Z,93.75
2018-12-12T17:37:12.215Z,94.23
2018-12-12T17:38:11.853Z,94.13
2018-12-12T17:40:04.726Z,93.94
2018-12-12T17:41:04.735Z,93.94
2018-12-12T17:42:57.635Z,93.94
2018-12-12T17:43:57.636Z,93.89
2018-12-12T17:45:51.025Z,93.42
2018-12-12T17:46:51.033Z,93.51
2018-12-12T17:48:43.929Z,93.99
2018-12-12T17:49:43.931Z,93.99
2018-12-12T17:51:36.843Z,94.08
2018-12-12T17:52:36.847Z,93.80
2018-12-12T17:54:29.803Z,93.51
2018-12-12T17:55:29.753Z,93.51
2018-12-12T17:57:22.648Z,93.61
2018-12-12T17:58:22.651Z,93.61
2018-12-12T18:00:15.587Z,93.70
2018-12-12T18:01:15.615Z,93.51
2018-12-12T18:03:08.476Z,93.51
2018-12-12T18:04:08.481Z,93.80
2018-12-12T18:06:01.366Z,94.18
2018-12-12T18:07:01.379Z,94.08
2018-12-12T18:08:54.284Z,94.08
2018-12-12T18:09:54.286Z,94.13
2018-12-12T18:11:47.200Z,94.65
2018-12-12T18:12:47.298Z,94.46
2018-12-12T18:14:40.102Z,95.07
2018-12-12T18:15:40.106Z,95.31
2018-12-12T18:17:33.213Z,95.07
2018-12-12T18:18:33.040Z,95.07
2018-12-12T18:20:26.014Z,95.31
2018-12-12T18:21:26.024Z,95.17
2018-12-12T18:23:19.107Z,95.83
2018-12-12T18:24:18.964Z,96.26
2018-12-12T18:26:12.004Z,95.69
2018-12-12T18:27:12.016Z,96.17
2018-12-12T18:29:04.939Z,96.92
2018-12-12T18:30:05.107Z,96.17
2018-12-12T18:31:58.331Z,96.26
2018-12-12T18:32:58.339Z,95.98